Time;durP1;ratioP1;P1;durP2;ratioP2;P2;SDS_P1;SDS_P2;PMS_P1;PMS_P2;Temp;Humidity;BMP_temperature;BMP_pressure;BME280_temperature;BME280_humidity;BME280_pressure;Samples;Min_cycle;Max_cycle;Signal;HPM_P1;HPM_P2
2021/09/25 00:00:07;;;;;;;8.07;7.37;;;16.80;74.40;;;;;;5016478;28;20231;-88
2021/09/25 00:02:32;;;;;;;8.00;7.27;;;16.80;74.30;;;;;;5009949;28;20204;-88
2021/09/25 00:04:58;;;;;;;7.90;7.30;;;16.80;74.20;;;;;;5009339;28;20205;-88
2021/09/25 00:07:24;;;;;;;8.37;7.67;;;16.90;74.10;;;;;;5009807;28;20203;-88
2021/09/25 00:09:50;;;;;;;7.72;7.13;;;16.80;75.20;;;;;;4992213;28;20234;-88
2021/09/25 00:12:16;;;;;;;9.10;8.30;;;16.90;75.80;;;;;;5007489;28;20561;-87
2021/09/25 00:14:43;;;;;;;8.90;7.85;;;16.70;74.30;;;;;;5008202;28;20250;-87
2021/09/25 00:17:10;;;;;;;8.10;7.30;;;16.70;74.00;;;;;;5007369;28;20277;-89
2021/09/25 00:19:37;;;;;;;8.48;7.78;;;16.70;74.30;;;;;;5003365;28;20360;-89
2021/09/25 00:22:04;;;;;;;11.40;10.43;;;16.70;74.60;;;;;;4995276;28;20200;-88
2021/09/25 00:24:30;;;;;;;12.30;11.20;;;16.70;74.70;;;;;;5008414;28;20213;-88
2021/09/25 00:26:56;;;;;;;13.67;12.60;;;16.70;74.40;;;;;;5017159;28;20199;-87
2021/09/25 00:29:22;;;;;;;8.63;7.90;;;16.70;74.70;;;;;;5018315;28;20207;-87
2021/09/25 00:31:48;;;;;;;8.60;8.00;;;16.80;75.20;;;;;;5009772;28;20936;-88
2021/09/25 00:34:14;;;;;;;8.55;7.72;;;16.80;74.50;;;;;;5006539;28;20310;-88
2021/09/25 00:36:40;;;;;;;8.07;7.38;;;16.80;74.30;;;;;;5005068;28;20250;-88
2021/09/25 00:39:06;;;;;;;8.52;7.78;;;16.80;74.80;;;;;;5007607;28;20679;-88
2021/09/25 00:41:32;;;;;;;17.10;15.70;;;16.70;75.10;;;;;;5007862;28;20339;-89
2021/09/25 00:43:58;;;;;;;53.03;48.80;;;16.70;75.30;;;;;;5001907;28;20291;-87
2021/09/25 00:46:24;;;;;;;46.63;42.97;;;16.60;75.40;;;;;;5009066;28;20208;-88
2021/09/25 00:48:50;;;;;;;44.27;40.87;;;16.60;75.80;;;;;;4991581;28;20212;-88
2021/09/25 00:51:16;;;;;;;40.70;37.65;;;16.70;75.10;;;;;;5008398;28;20202;-87
2021/09/25 00:53:41;;;;;;;47.70;43.80;;;16.70;75.40;;;;;;5007678;28;20307;-87
2021/09/25 00:56:09;;;;;;;25.00;23.00;;;16.70;75.10;;;;;;5010794;28;20218;-87
2021/09/25 00:58:36;;;;;;;12.17;11.07;;;16.80;74.50;;;;;;5002611;28;20253;-87
2021/09/25 01:01:03;;;;;;;10.80;9.90;;;16.70;74.30;;;;;;5008277;28;20203;-88
2021/09/25 01:03:29;;;;;;;15.47;14.13;;;16.60;74.70;;;;;;5009793;28;20206;-89
2021/09/25 01:05:55;;;;;;;21.63;20.00;;;16.60;74.80;;;;;;5007702;28;20228;-87
2021/09/25 01:08:23;;;;;;;25.97;23.97;;;16.60;74.40;;;;;;5005287;28;20195;-87
2021/09/25 01:10:51;;;;;;;24.23;22.43;;;16.40;74.70;;;;;;4988966;28;20635;-88
2021/09/25 01:13:24;;;;;;;17.70;16.20;;;16.10;75.70;;;;;;5005555;28;20921;-88
2021/09/25 01:15:51;;;;;;;14.83;13.53;;;15.80;77.10;;;;;;5003618;28;20824;-89
2021/09/25 01:18:20;;;;;;;13.50;12.40;;;15.50;79.30;;;;;;4992636;28;20187;-89
2021/09/25 01:20:49;;;;;;;15.30;14.00;;;15.50;79.60;;;;;;4995870;28;20711;-89
2021/09/25 01:23:15;;;;;;;13.50;12.50;;;15.70;79.10;;;;;;5004473;28;20808;-88
2021/09/25 01:25:41;;;;;;;13.63;12.53;;;15.70;78.00;;;;;;5007453;28;20738;-88
2021/09/25 01:28:07;;;;;;;13.20;12.00;;;15.80;77.60;;;;;;5008093;28;20188;-87
2021/09/25 01:30:33;;;;;;;12.93;11.83;;;15.80;77.10;;;;;;5006700;28;20225;-87
2021/09/25 01:33:01;;;;;;;13.07;11.97;;;15.90;77.20;;;;;;5004430;28;20602;-88
2021/09/25 01:35:27;;;;;;;13.17;12.07;;;15.90;76.10;;;;;;5005375;28;20281;-88
2021/09/25 01:37:53;;;;;;;13.77;12.57;;;15.90;76.60;;;;;;5005029;28;20295;-86
2021/09/25 01:40:19;;;;;;;13.17;12.07;;;15.80;76.20;;;;;;5007376;28;20216;-89
2021/09/25 01:42:51;;;;;;;13.27;12.27;;;15.90;76.10;;;;;;5005035;28;20244;-89
2021/09/25 01:45:16;;;;;;;12.53;11.63;;;16.00;75.80;;;;;;5008561;28;21011;-88
2021/09/25 01:47:42;;;;;;;12.53;11.43;;;15.90;75.30;;;;;;4991054;28;20197;-87
2021/09/25 01:50:11;;;;;;;12.07;11.00;;;15.90;75.10;;;;;;4990143;28;20243;-89
2021/09/25 01:52:40;;;;;;;11.20;10.20;;;15.80;75.30;;;;;;5008881;28;20292;-87
2021/09/25 01:55:06;;;;;;;10.23;9.37;;;15.70;75.50;;;;;;5006803;28;20206;-90
2021/09/25 01:57:32;;;;;;;10.73;9.83;;;15.70;75.80;;;;;;4977028;28;20192;-90
2021/09/25 01:59:58;;;;;;;11.77;10.77;;;15.70;74.90;;;;;;5026828;28;20237;-85
2021/09/25 02:02:23;;;;;;;12.30;11.20;;;15.60;75.00;;;;;;4998251;28;20198;-87
2021/09/25 02:04:49;;;;;;;11.57;10.47;;;15.60;75.60;;;;;;5029533;28;20224;-86
2021/09/25 02:07:17;;;;;;;12.03;11.03;;;15.50;76.00;;;;;;5029666;28;20190;-86
2021/09/25 02:09:44;;;;;;;12.67;11.53;;;15.60;75.70;;;;;;5014015;28;20228;-85
2021/09/25 02:12:10;;;;;;;11.63;10.70;;;15.60;75.40;;;;;;4996723;28;20848;-88
2021/09/25 02:14:37;;;;;;;11.30;10.40;;;15.60;75.40;;;;;;4990864;28;20244;-89
2021/09/25 02:17:03;;;;;;;12.67;11.57;;;15.60;75.20;;;;;;5015475;28;20467;-88
2021/09/25 02:19:29;;;;;;;10.80;9.90;;;15.60;73.70;;;;;;4997962;28;20251;-88
2021/09/25 02:21:57;;;;;;;10.60;9.50;;;15.40;75.10;;;;;;5000878;28;20204;-87
2021/09/25 02:24:23;;;;;;;11.40;10.40;;;15.40;75.30;;;;;;5029171;28;20204;-85
2021/09/25 02:26:52;;;;;;;9.90;9.20;;;15.40;75.10;;;;;;5038774;28;20189;-86
2021/09/25 02:29:17;;;;;;;10.57;9.57;;;15.40;74.90;;;;;;5035026;28;20224;-87
2021/09/25 02:31:46;;;;;;;10.63;9.77;;;15.50;74.50;;;;;;5035674;28;20212;-87
2021/09/25 02:34:12;;;;;;;10.67;9.77;;;15.50;74.90;;;;;;5022324;28;20309;-88
2021/09/25 02:36:38;;;;;;;10.00;9.07;;;15.50;73.70;;;;;;5017904;28;20766;-88
2021/09/25 02:39:04;;;;;;;10.30;9.50;;;15.30;74.20;;;;;;4999559;28;20213;-89
2021/09/25 02:41:29;;;;;;;10.00;9.10;;;15.30;74.80;;;;;;5018707;28;20196;-89
2021/09/25 02:43:55;;;;;;;9.47;8.67;;;15.20;74.70;;;;;;5017023;28;20246;-88
2021/09/25 02:46:21;;;;;;;9.80;8.90;;;15.20;74.90;;;;;;5017913;28;20747;-86
2021/09/25 02:48:50;;;;;;;9.73;8.93;;;15.30;74.70;;;;;;5024073;28;20189;-86
2021/09/25 02:51:26;;;;;;;9.57;8.67;;;15.40;74.70;;;;;;5004520;28;20198;-89
2021/09/25 02:53:52;;;;;;;9.23;8.43;;;15.30;75.60;;;;;;5001693;28;20221;-87
2021/09/25 02:56:18;;;;;;;9.10;8.40;;;15.30;75.00;;;;;;5017802;28;20190;-90
2021/09/25 02:58:47;;;;;;;9.07;8.37;;;15.30;74.40;;;;;;5018105;28;20247;-89
2021/09/25 03:01:13;;;;;;;8.50;7.80;;;15.30;74.00;;;;;;4999584;28;20636;-89
2021/09/25 03:03:41;;;;;;;9.07;8.23;;;15.20;75.40;;;;;;5016553;28;20274;-88
2021/09/25 03:06:08;;;;;;;8.53;7.77;;;15.20;74.30;;;;;;5017445;28;20270;-88
2021/09/25 03:08:39;;;;;;;9.10;8.30;;;15.10;74.40;;;;;;5003840;28;20209;-89
2021/09/25 03:11:05;;;;;;;8.00;7.30;;;15.10;74.50;;;;;;5017512;28;20231;-88
2021/09/25 03:13:37;;;;;;;9.00;8.20;;;15.10;74.20;;;;;;5018274;28;20255;-88
2021/09/25 03:16:03;;;;;;;10.07;7.50;;;15.10;74.10;;;;;;4985067;28;20288;-88
2021/09/25 03:18:29;;;;;;;8.83;7.93;;;15.00;74.50;;;;;;5015785;28;20217;-89
2021/09/25 03:20:55;;;;;;;8.77;8.07;;;14.80;73.50;;;;;;4999932;28;20203;-89
2021/09/25 03:23:21;;;;;;;8.00;7.27;;;14.80;74.40;;;;;;5018517;28;20241;-89
2021/09/25 03:26:31;;;;;;;7.77;7.07;;;14.80;75.10;;;;;;5015581;28;20202;-89
2021/09/25 03:29:02;;;;;;;8.53;7.67;;;14.80;75.10;;;;;;5007480;28;20220;-88
2021/09/25 03:31:31;;;;;;;7.97;7.17;;;14.70;74.60;;;;;;5017060;28;20201;-90
2021/09/25 03:34:00;;;;;;;9.03;8.33;;;14.60;75.60;;;;;;4996043;28;20221;-89
2021/09/25 03:36:26;;;;;;;8.10;6.90;;;14.40;75.00;;;;;;5012525;28;20253;-90
2021/09/25 03:38:52;;;;;;;8.07;7.27;;;14.30;76.40;;;;;;4984250;28;20233;-90
2021/09/25 03:41:18;;;;;;;7.77;7.07;;;14.30;76.10;;;;;;5014677;28;21005;-87
2021/09/25 03:43:52;;;;;;;7.33;6.70;;;14.50;75.90;;;;;;5010900;28;20244;-88
2021/09/25 03:46:19;;;;;;;7.90;7.20;;;14.50;75.30;;;;;;5011702;28;20209;-88
2021/09/25 03:48:46;;;;;;;7.17;6.67;;;14.60;75.30;;;;;;5011761;28;20201;-88
2021/09/25 03:51:15;;;;;;;8.27;7.53;;;14.60;75.20;;;;;;4998109;28;20207;-86
2021/09/25 03:53:43;;;;;;;7.43;6.73;;;14.70;74.80;;;;;;5008624;28;20229;-88
2021/09/25 03:56:08;;;;;;;7.40;6.80;;;14.70;74.50;;;;;;4985866;28;20235;-89
2021/09/25 03:58:39;;;;;;;7.80;7.13;;;14.60;73.80;;;;;;5017983;28;20857;-90
2021/09/25 04:01:11;;;;;;;7.47;6.77;;;14.60;74.30;;;;;;5014451;28;20253;-85
2021/09/25 04:03:40;;;;;;;7.00;6.30;;;14.60;74.00;;;;;;5000777;28;20205;-86
2021/09/25 04:06:05;;;;;;;7.13;6.50;;;14.50;74.20;;;;;;5013158;28;20194;-89
2021/09/25 04:08:31;;;;;;;8.13;6.63;;;14.50;74.20;;;;;;5023540;28;20250;-89
2021/09/25 04:10:57;;;;;;;8.73;5.93;;;14.50;74.40;;;;;;5010150;28;20198;-87
2021/09/25 04:13:23;;;;;;;7.40;6.73;;;14.50;75.00;;;;;;4985721;28;20257;-86
2021/09/25 04:15:52;;;;;;;7.50;6.90;;;14.40;74.00;;;;;;4981606;28;20182;-88
2021/09/25 04:18:18;;;;;;;7.77;7.17;;;14.40;73.70;;;;;;5000745;28;20226;-87
2021/09/25 04:20:44;;;;;;;7.73;7.13;;;14.40;74.80;;;;;;5033646;28;20224;-86
2021/09/25 04:23:11;;;;;;;7.23;6.63;;;14.40;74.80;;;;;;5032582;28;20232;-86
2021/09/25 04:25:37;;;;;;;7.17;6.63;;;14.40;74.80;;;;;;5023811;28;20312;-89
2021/09/25 04:28:05;;;;;;;7.57;6.97;;;14.40;74.70;;;;;;4993601;28;20294;-88
2021/09/25 04:30:40;;;;;;;7.63;6.97;;;14.30;74.60;;;;;;4998472;28;20349;-89
2021/09/25 04:33:08;;;;;;;7.67;7.00;;;14.40;74.50;;;;;;5015103;28;20212;-88
2021/09/25 04:35:35;;;;;;;7.70;7.00;;;14.40;74.70;;;;;;5011441;28;20667;-86
2021/09/25 04:38:00;;;;;;;7.90;7.30;;;14.40;74.60;;;;;;5012628;28;20236;-88
2021/09/25 04:40:29;;;;;;;7.07;6.47;;;14.40;75.00;;;;;;5013568;28;20213;-87
2021/09/25 04:42:56;;;;;;;7.97;7.00;;;14.30;75.90;;;;;;5012076;28;20729;-88
2021/09/25 04:45:21;;;;;;;7.10;6.50;;;14.30;75.20;;;;;;5008788;28;20221;-88
2021/09/25 04:47:47;;;;;;;7.73;7.03;;;14.30;75.00;;;;;;5012182;28;20654;-86
2021/09/25 04:50:14;;;;;;;8.00;7.20;;;14.30;75.10;;;;;;5010423;28;20231;-88
2021/09/25 04:52:40;;;;;;;7.70;7.03;;;14.30;74.40;;;;;;5007809;28;20799;-88
2021/09/25 04:55:07;;;;;;;9.87;7.13;;;14.30;73.50;;;;;;4995070;28;20276;-88
2021/09/25 04:57:33;;;;;;;7.27;6.57;;;14.10;73.70;;;;;;5009861;28;20192;-87
2021/09/25 04:59:59;;;;;;;6.97;6.27;;;14.10;75.00;;;;;;5006179;28;20228;-87
2021/09/25 05:02:25;;;;;;;9.07;6.43;;;14.10;75.30;;;;;;5010527;28;20827;-88
2021/09/25 05:04:50;;;;;;;6.23;5.73;;;14.20;74.90;;;;;;5011963;28;20189;-88
2021/09/25 05:07:16;;;;;;;6.30;5.70;;;14.20;74.70;;;;;;5011841;28;20186;-88
2021/09/25 05:09:42;;;;;;;6.47;5.90;;;14.10;74.60;;;;;;4994370;28;20217;-89
2021/09/25 05:12:08;;;;;;;7.30;6.40;;;14.10;74.70;;;;;;5012381;28;20205;-88
2021/09/25 05:14:34;;;;;;;7.30;6.70;;;14.10;75.70;;;;;;5001406;28;20202;-89
2021/09/25 05:17:00;;;;;;;8.20;6.10;;;13.90;75.80;;;;;;4987338;28;20291;-88
2021/09/25 05:19:26;;;;;;;6.23;5.73;;;14.00;75.00;;;;;;5009608;28;20215;-88
2021/09/25 05:21:52;;;;;;;6.87;6.33;;;13.80;75.10;;;;;;5010601;28;20205;-88
2021/09/25 05:24:19;;;;;;;6.80;6.20;;;13.80;75.90;;;;;;5008488;28;20284;-88
2021/09/25 05:26:48;;;;;;;7.60;6.43;;;13.90;75.60;;;;;;5007487;28;20197;-89
2021/09/25 05:29:16;;;;;;;7.60;7.00;;;13.90;75.40;;;;;;5009410;28;20222;-89
2021/09/25 05:31:42;;;;;;;6.77;6.27;;;13.90;76.30;;;;;;5006855;28;20597;-88
2021/09/25 05:34:08;;;;;;;7.70;6.93;;;13.80;76.80;;;;;;5007293;28;20227;-88
2021/09/25 05:36:33;;;;;;;6.83;6.13;;;13.90;77.30;;;;;;4991606;28;20202;-87
2021/09/25 05:38:59;;;;;;;6.43;5.93;;;13.80;76.10;;;;;;4990958;28;20315;-89
2021/09/25 05:41:25;;;;;;;6.53;6.03;;;13.80;75.60;;;;;;5007024;28;20837;-88
2021/09/25 05:43:53;;;;;;;6.80;6.20;;;13.80;75.70;;;;;;5008728;28;20929;-89
2021/09/25 05:46:19;;;;;;;6.80;6.13;;;13.80;75.70;;;;;;4988321;28;20201;-89
2021/09/25 05:48:47;;;;;;;7.23;6.50;;;13.80;75.40;;;;;;5005445;28;20263;-88
2021/09/25 05:51:14;;;;;;;6.87;6.17;;;13.90;74.90;;;;;;5007505;28;20198;-89
2021/09/25 05:53:39;;;;;;;6.87;6.07;;;13.90;75.30;;;;;;5009122;28;20220;-89
2021/09/25 05:56:05;;;;;;;7.80;6.70;;;13.90;75.00;;;;;;5005676;28;20195;-87
2021/09/25 05:58:31;;;;;;;8.83;6.43;;;13.90;75.50;;;;;;5007702;28;20252;-89
2021/09/25 06:00:57;;;;;;;8.37;5.97;;;13.90;75.00;;;;;;4992049;28;20217;-88
2021/09/25 06:03:23;;;;;;;6.93;6.33;;;13.80;75.50;;;;;;5006668;28;20602;-88
2021/09/25 06:05:48;;;;;;;7.30;6.50;;;13.80;76.20;;;;;;4978310;28;20208;-86
2021/09/25 06:08:15;;;;;;;6.13;5.53;;;13.90;75.80;;;;;;5010942;28;20206;-85
2021/09/25 06:10:41;;;;;;;12.47;7.13;;;13.90;75.60;;;;;;5007376;28;20228;-87
2021/09/25 06:13:07;;;;;;;7.03;6.37;;;14.00;76.20;;;;;;5002615;28;20224;-87
2021/09/25 06:15:35;;;;;;;10.00;8.27;;;14.00;76.50;;;;;;4993440;28;20188;-88
2021/09/25 06:18:02;;;;;;;9.70;7.83;;;14.10;76.20;;;;;;5015742;28;20189;-87
2021/09/25 06:20:28;;;;;;;8.43;7.00;;;14.10;76.40;;;;;;5015200;28;20228;-87
2021/09/25 06:22:53;;;;;;;7.30;6.60;;;14.10;76.10;;;;;;5016203;28;20219;-87
2021/09/25 06:25:19;;;;;;;7.37;6.77;;;14.00;77.20;;;;;;5017431;28;20198;-88
2021/09/25 06:27:45;;;;;;;7.00;6.40;;;14.00;78.00;;;;;;5015891;28;20232;-89
2021/09/25 06:30:11;;;;;;;7.17;6.47;;;14.00;78.30;;;;;;5014500;28;20221;-89
2021/09/25 06:32:37;;;;;;;6.57;5.97;;;14.00;78.80;;;;;;5016746;28;20224;-86
2021/09/25 06:35:07;;;;;;;7.33;6.73;;;13.90;79.20;;;;;;5017238;28;20303;-86
2021/09/25 06:37:33;;;;;;;7.23;6.53;;;14.00;79.30;;;;;;5010443;28;20222;-87
2021/09/25 06:39:59;;;;;;;6.80;6.13;;;13.90;79.50;;;;;;5018395;28;20212;-89
2021/09/25 06:42:25;;;;;;;6.53;5.93;;;13.90;80.80;;;;;;5024402;28;20263;-88
2021/09/25 06:44:51;;;;;;;9.60;8.80;;;13.90;80.20;;;;;;5018525;28;20242;-87
2021/09/25 06:47:17;;;;;;;7.30;6.30;;;14.00;80.30;;;;;;5017814;28;20681;-87
2021/09/25 06:49:43;;;;;;;6.90;6.40;;;14.10;80.50;;;;;;5019864;28;20271;-86
2021/09/25 06:52:10;;;;;;;6.83;6.13;;;14.20;80.20;;;;;;5027224;28;20256;-87
2021/09/25 06:54:37;;;;;;;7.00;6.30;;;14.30;80.20;;;;;;5027695;28;20272;-86
2021/09/25 06:57:04;;;;;;;7.10;6.50;;;14.40;80.30;;;;;;5026527;28;20205;-85
2021/09/25 06:59:29;;;;;;;7.03;6.43;;;14.50;79.70;;;;;;5031210;28;20749;-84
2021/09/25 07:01:55;;;;;;;10.27;7.13;;;14.50;79.60;;;;;;5020105;28;20197;-85
2021/09/25 07:04:22;;;;;;;7.63;6.93;;;14.60;80.00;;;;;;5008618;28;20303;-87
2021/09/25 07:06:48;;;;;;;8.33;7.53;;;14.60;80.60;;;;;;5007154;28;20217;-87
2021/09/25 07:09:14;;;;;;;7.40;6.60;;;14.60;81.10;;;;;;5017855;28;20219;-87
2021/09/25 07:11:40;;;;;;;7.97;7.27;;;14.70;80.60;;;;;;5018368;28;20222;-87
2021/09/25 07:14:05;;;;;;;7.63;6.93;;;14.70;81.00;;;;;;5018797;28;20209;-85
2021/09/25 07:16:32;;;;;;;8.37;7.10;;;14.80;81.40;;;;;;4988983;28;20189;-87
2021/09/25 07:18:58;;;;;;;8.67;7.87;;;14.70;81.70;;;;;;5017831;28;20209;-86
2021/09/25 07:21:23;;;;;;;9.17;7.43;;;14.60;83.40;;;;;;5017565;28;20201;-87
2021/09/25 07:23:49;;;;;;;8.33;7.17;;;14.60;83.60;;;;;;5016068;28;20188;-88
2021/09/25 07:26:15;;;;;;;8.27;7.57;;;14.50;84.70;;;;;;5020478;28;20193;-88
2021/09/25 07:28:41;;;;;;;8.40;7.60;;;14.60;84.70;;;;;;5018429;28;20261;-86
2021/09/25 07:31:09;;;;;;;9.30;8.27;;;14.70;84.40;;;;;;5026700;28;20209;-86
2021/09/25 07:33:35;;;;;;;8.33;7.63;;;14.60;83.70;;;;;;5022453;28;20206;-86
2021/09/25 07:36:01;;;;;;;8.47;7.63;;;14.80;82.80;;;;;;5014970;28;20190;-86
2021/09/25 07:38:27;;;;;;;8.10;7.30;;;14.90;82.70;;;;;;5018497;28;20245;-87
2021/09/25 07:40:56;;;;;;;8.90;8.07;;;15.00;82.40;;;;;;5018647;28;20254;-86
2021/09/25 07:43:21;;;;;;;9.73;8.70;;;15.10;83.00;;;;;;5015062;28;20240;-86
2021/09/25 07:45:47;;;;;;;18.10;9.37;;;15.10;83.10;;;;;;5010362;28;20184;-86
2021/09/25 07:48:13;;;;;;;9.20;8.30;;;15.10;83.80;;;;;;5012318;28;20287;-87
2021/09/25 07:50:39;;;;;;;9.67;8.07;;;15.10;84.00;;;;;;4993739;28;20233;-85
2021/09/25 07:53:04;;;;;;;9.53;8.40;;;15.00;84.10;;;;;;5011956;28;20213;-86
2021/09/25 07:55:30;;;;;;;10.27;9.37;;;14.90;84.90;;;;;;5013048;28;20236;-86
2021/09/25 07:57:56;;;;;;;9.77;8.87;;;14.90;86.10;;;;;;5010895;28;20269;-87
2021/09/25 08:00:22;;;;;;;10.60;8.87;;;14.90;86.20;;;;;;5014097;28;20227;-87
2021/09/25 08:02:49;;;;;;;11.17;8.87;;;15.00;85.10;;;;;;5012559;28;20189;-87
2021/09/25 08:05:15;;;;;;;10.37;9.17;;;15.30;84.20;;;;;;5010931;28;20670;-87
2021/09/25 08:07:41;;;;;;;10.57;9.63;;;15.40;84.60;;;;;;4995412;28;20227;-87
2021/09/25 08:10:08;;;;;;;11.53;9.77;;;15.50;83.80;;;;;;5012741;28;20701;-87
2021/09/25 08:12:34;;;;;;;11.10;10.03;;;15.50;84.60;;;;;;5013441;28;20188;-86
2021/09/25 08:15:00;;;;;;;10.63;9.63;;;15.60;84.70;;;;;;5013484;28;20256;-86
2021/09/25 08:17:26;;;;;;;10.90;10.00;;;15.60;84.20;;;;;;5016377;28;20214;-86
2021/09/25 08:19:52;;;;;;;10.53;9.50;;;15.80;83.30;;;;;;5014760;28;20620;-86
2021/09/25 08:22:18;;;;;;;9.63;8.77;;;15.80;84.40;;;;;;5003249;28;20191;-86
2021/09/25 08:24:44;;;;;;;10.47;9.57;;;15.90;82.60;;;;;;5011486;28;20257;-86
2021/09/25 08:27:10;;;;;;;11.20;10.07;;;16.00;83.00;;;;;;5011298;28;20284;-86
2021/09/25 08:29:36;;;;;;;10.10;9.00;;;16.10;82.50;;;;;;5010200;28;20218;-86
2021/09/25 08:32:03;;;;;;;10.63;9.63;;;16.20;82.50;;;;;;5014520;28;20708;-86
2021/09/25 08:34:29;;;;;;;10.57;9.67;;;16.20;83.00;;;;;;5014167;28;20248;-86
2021/09/25 08:36:55;;;;;;;10.40;9.40;;;16.30;82.90;;;;;;5016111;28;20197;-86
2021/09/25 08:39:21;;;;;;;10.37;9.30;;;16.30;82.70;;;;;;5015281;28;20217;-86
2021/09/25 08:41:49;;;;;;;10.30;9.30;;;16.40;84.20;;;;;;5018112;28;20198;-86
2021/09/25 08:44:15;;;;;;;10.07;9.20;;;16.50;83.50;;;;;;5017606;28;20449;-86
2021/09/25 08:46:41;;;;;;;10.47;9.47;;;16.60;81.80;;;;;;5023173;28;20201;-87
2021/09/25 08:49:07;;;;;;;10.10;9.20;;;16.80;81.80;;;;;;5032921;28;20228;-85
2021/09/25 08:51:34;;;;;;;9.57;8.60;;;16.90;81.40;;;;;;5033646;28;20227;-86
2021/09/25 08:54:01;;;;;;;11.30;9.33;;;17.10;81.10;;;;;;5019818;28;20276;-86
2021/09/25 08:56:28;;;;;;;10.27;9.33;;;17.30;79.90;;;;;;5015461;28;20229;-86
2021/09/25 08:58:54;;;;;;;9.60;8.73;;;17.30;79.60;;;;;;5015733;28;20212;-86
2021/09/25 09:01:22;;;;;;;8.88;7.97;;;17.40;79.20;;;;;;5015235;28;20193;-86
2021/09/25 09:03:51;;;;;;;10.03;9.20;;;17.50;80.20;;;;;;5002422;28;20241;-86
2021/09/25 09:06:32;;;;;;;9.70;8.80;;;17.60;78.50;;;;;;5017106;28;20557;-86
2021/09/25 09:09:05;;;;;;;9.05;8.32;;;17.70;77.70;;;;;;5015098;28;20226;-86
2021/09/25 09:11:31;;;;;;;9.75;8.73;;;17.80;77.20;;;;;;5017207;28;20197;-86
2021/09/25 09:14:00;;;;;;;11.40;8.23;;;17.90;76.90;;;;;;5016871;28;20732;-86
2021/09/25 09:16:27;;;;;;;9.57;8.68;;;18.30;76.10;;;;;;5029819;28;20189;-85
2021/09/25 09:18:53;;;;;;;8.88;8.07;;;18.50;74.90;;;;;;5013137;28;20231;-86
2021/09/25 09:21:27;;;;;;;9.88;9.10;;;18.80;74.70;;;;;;5027882;28;20701;-86
2021/09/25 09:23:56;;;;;;;9.55;8.55;;;18.80;75.10;;;;;;5014054;28;20200;-86
2021/09/25 09:26:41;;;;;;;9.38;8.57;;;18.90;74.00;;;;;;5025865;28;20216;-86
2021/09/25 09:29:08;;;;;;;9.90;9.00;;;18.80;74.60;;;;;;5003971;28;20213;-86
2021/09/25 09:31:35;;;;;;;10.15;9.25;;;18.80;73.80;;;;;;4999212;28;20201;-87
2021/09/25 09:34:03;;;;;;;9.07;8.20;;;19.00;73.40;;;;;;5012504;28;20206;-89
2021/09/25 09:36:38;;;;;;;9.98;8.98;;;19.30;72.70;;;;;;4995205;28;20715;-88
2021/09/25 09:39:15;;;;;;;9.48;8.68;;;19.50;72.40;;;;;;5014191;28;20768;-87
2021/09/25 09:41:46;;;;;;;10.85;9.45;;;19.60;71.20;;;;;;5018138;28;20182;-87
2021/09/25 09:44:24;;;;;;;10.27;9.25;;;19.70;70.90;;;;;;5014219;28;20190;-87
2021/09/25 09:46:54;;;;;;;10.45;9.45;;;19.90;70.20;;;;;;5030379;28;20194;-88
2021/09/25 09:49:25;;;;;;;9.35;8.55;;;20.10;69.30;;;;;;5030697;28;20204;-87
2021/09/25 09:51:56;;;;;;;10.18;9.18;;;20.40;68.40;;;;;;5018663;28;20195;-88
2021/09/25 09:54:30;;;;;;;13.35;8.80;;;20.30;68.70;;;;;;5012890;28;20215;-87
2021/09/25 09:57:07;;;;;;;11.73;8.52;;;20.50;68.30;;;;;;5016158;28;20191;-87
2021/09/25 09:59:33;;;;;;;8.80;8.07;;;21.00;65.40;;;;;;5016203;28;20362;-87
2021/09/25 10:01:59;;;;;;;8.70;7.88;;;21.20;64.20;;;;;;4996167;28;20194;-86
2021/09/25 10:04:25;;;;;;;9.10;8.30;;;21.20;63.90;;;;;;4999256;28;20262;-87
2021/09/25 10:06:52;;;;;;;8.15;7.38;;;21.40;63.10;;;;;;5016792;28;20196;-89
2021/09/25 10:09:21;;;;;;;7.50;6.82;;;21.40;63.50;;;;;;5014526;28;20240;-89
2021/09/25 10:11:49;;;;;;;7.93;7.18;;;21.70;63.40;;;;;;5017023;28;20189;-88
2021/09/25 10:14:27;;;;;;;7.78;7.18;;;22.00;62.70;;;;;;5017305;28;20225;-85
2021/09/25 10:16:56;;;;;;;8.55;7.75;;;22.20;62.80;;;;;;5012515;28;20820;-88
2021/09/25 10:19:30;;;;;;;8.05;7.38;;;22.30;62.00;;;;;;5009018;28;20217;-88
2021/09/25 10:22:18;;;;;;;8.30;7.40;;;22.30;61.50;;;;;;5016058;28;20671;-90
2021/09/25 10:24:54;;;;;;;8.23;7.38;;;22.30;61.80;;;;;;4996306;28;20194;-89
2021/09/25 10:27:20;;;;;;;7.88;7.18;;;22.50;63.20;;;;;;5019221;28;20200;-91
2021/09/25 10:29:49;;;;;;;8.38;7.57;;;22.90;60.40;;;;;;4999509;28;20332;-89
2021/09/25 10:32:25;;;;;;;8.48;7.63;;;23.10;58.70;;;;;;5013701;28;20227;-89
2021/09/25 10:35:22;;;;;;;11.95;7.53;;;23.10;59.70;;;;;;5015643;28;20188;-88
2021/09/25 10:38:02;;;;;;;8.52;7.72;;;22.80;60.70;;;;;;4999413;28;20800;-88
2021/09/25 10:40:31;;;;;;;7.68;6.97;;;23.00;58.20;;;;;;5016976;28;20209;-88
2021/09/25 10:43:04;;;;;;;8.05;7.32;;;23.20;57.40;;;;;;5016959;28;20217;-87
2021/09/25 10:45:36;;;;;;;8.52;7.72;;;23.20;56.10;;;;;;5008039;28;20193;-86
2021/09/25 10:48:15;;;;;;;7.90;7.20;;;23.30;56.10;;;;;;5001443;28;20683;-88
2021/09/25 10:50:50;;;;;;;8.73;7.85;;;23.40;56.10;;;;;;5013798;28;20213;-88
2021/09/25 10:53:24;;;;;;;8.27;7.35;;;23.60;55.30;;;;;;5013060;28;20252;-88
2021/09/25 10:55:52;;;;;;;8.52;7.72;;;23.80;56.40;;;;;;5014434;28;20195;-89
2021/09/25 10:58:27;;;;;;;8.63;7.85;;;24.20;54.70;;;;;;5012396;28;20189;-88
2021/09/25 11:01:20;;;;;;;8.50;7.85;;;24.30;54.30;;;;;;5014706;28;20212;-87
2021/09/25 11:03:54;;;;;;;9.50;8.30;;;24.60;53.70;;;;;;5017448;28;20867;-88
2021/09/25 11:06:39;;;;;;;9.23;8.43;;;24.50;52.80;;;;;;5003361;28;20197;-89
2021/09/25 11:09:15;;;;;;;10.15;7.90;;;24.40;52.60;;;;;;5017809;28;20266;-89
2021/09/25 11:11:51;;;;;;;10.00;9.00;;;24.50;53.60;;;;;;4992768;28;20197;-89
2021/09/25 11:14:22;;;;;;;9.55;8.73;;;24.60;52.60;;;;;;5009783;28;20248;-89
2021/09/25 11:17:14;;;;;;;9.30;8.48;;;24.80;51.50;;;;;;5012978;28;20178;-89
2021/09/25 11:19:40;;;;;;;9.90;8.93;;;25.10;50.70;;;;;;4996617;28;20209;-89
2021/09/25 11:22:08;;;;;;;12.10;8.90;;;25.10;50.90;;;;;;5011787;28;20251;-88
2021/09/25 11:24:42;;;;;;;11.23;9.60;;;25.30;51.90;;;;;;5021693;28;20279;-87
2021/09/25 11:27:09;;;;;;;9.02;8.32;;;25.30;50.10;;;;;;5016191;28;20197;-87
2021/09/25 11:29:48;;;;;;;11.02;8.95;;;25.60;49.70;;;;;;5021635;28;20216;-87
2021/09/25 11:32:14;;;;;;;9.07;8.30;;;25.90;48.60;;;;;;5025997;28;20204;-88
2021/09/25 11:34:40;;;;;;;9.82;8.10;;;25.80;49.00;;;;;;5019500;28;20396;-87
2021/09/25 11:37:06;;;;;;;9.45;8.65;;;25.60;49.60;;;;;;5019304;28;20273;-87
2021/09/25 11:39:42;;;;;;;11.80;8.75;;;25.80;48.80;;;;;;5014240;28;20213;-87
2021/09/25 11:42:26;;;;;;;9.20;8.18;;;25.70;48.80;;;;;;5015227;28;20197;-88
2021/09/25 11:45:06;;;;;;;9.98;8.98;;;25.80;48.50;;;;;;5020170;28;20192;-88
2021/09/25 11:47:37;;;;;;;8.93;8.18;;;26.20;48.60;;;;;;4993052;28;20186;-88
2021/09/25 11:50:14;;;;;;;8.75;8.00;;;26.40;47.20;;;;;;5010779;28;20250;-87
2021/09/25 11:52:41;;;;;;;8.85;7.95;;;26.40;48.40;;;;;;5008225;28;20201;-88
2021/09/25 11:55:08;;;;;;;8.60;7.75;;;26.50;47.40;;;;;;5007874;28;20276;-87
2021/09/25 11:57:34;;;;;;;9.30;8.40;;;26.80;46.50;;;;;;5007984;28;20198;-90
2021/09/25 12:00:00;;;;;;;7.80;7.20;;;27.00;47.00;;;;;;5008164;28;20249;-88
2021/09/25 12:02:41;;;;;;;9.00;7.97;;;27.20;45.90;;;;;;5010872;28;20277;-89
2021/09/25 12:05:09;;;;;;;8.25;7.65;;;27.20;45.90;;;;;;5010487;28;20531;-89
2021/09/25 12:07:44;;;;;;;7.68;7.03;;;27.30;44.80;;;;;;5006445;28;20688;-89
2021/09/25 12:10:31;;;;;;;8.80;7.95;;;27.40;45.20;;;;;;5006842;28;20209;-89
2021/09/25 12:13:01;;;;;;;9.18;8.48;;;27.50;44.00;;;;;;5006326;28;20285;-89
2021/09/25 12:15:31;;;;;;;8.15;7.45;;;27.70;44.10;;;;;;5007894;28;20191;-89
2021/09/25 12:18:13;;;;;;;7.55;6.95;;;28.10;43.90;;;;;;5008630;28;20205;-90
2021/09/25 12:20:45;;;;;;;8.57;7.97;;;28.10;43.50;;;;;;5004260;28;20317;-89
2021/09/25 12:23:14;;;;;;;9.35;8.50;;;28.10;43.20;;;;;;5009477;28;20193;-89
2021/09/25 12:25:41;;;;;;;8.30;7.60;;;27.20;46.40;;;;;;5018671;28;20198;-89
2021/09/25 12:28:27;;;;;;;7.60;6.75;;;27.40;47.10;;;;;;5015369;28;20584;-89
2021/09/25 12:30:58;;;;;;;7.95;7.35;;;28.00;44.80;;;;;;5017819;28;20284;-89
2021/09/25 12:33:24;;;;;;;7.80;7.07;;;28.50;43.00;;;;;;5025079;28;20221;-89
2021/09/25 12:36:10;;;;;;;8.27;7.57;;;28.40;42.40;;;;;;5021095;28;20192;-89
2021/09/25 12:38:43;;;;;;;8.30;7.55;;;28.30;43.40;;;;;;5009587;28;20223;-89
2021/09/25 12:41:12;;;;;;;8.88;8.02;;;28.30;43.10;;;;;;5000420;28;20200;-89
2021/09/25 12:43:48;;;;;;;8.63;7.32;;;28.50;44.00;;;;;;5011012;28;20231;-89
2021/09/25 12:46:23;;;;;;;9.35;8.45;;;28.90;43.10;;;;;;5008410;28;20224;-88
2021/09/25 12:48:59;;;;;;;8.82;7.88;;;29.20;42.90;;;;;;5009243;28;20713;-89